createdAt,value
2022-12-16T07:29:43.164Z,64.50
2022-12-16T07:32:33.053Z,63.43
2022-12-16T07:35:22.982Z,68.53
2022-12-16T07:38:12.555Z,73.97
2022-12-16T07:41:18.507Z,63.87
2022-12-16T07:44:08.511Z,66.07
2022-12-16T07:47:01.250Z,70.17
2022-12-16T07:49:51.900Z,62.63
2022-12-16T07:52:42.212Z,69.50
2022-12-16T07:55:32.342Z,63.63
2022-12-16T07:58:22.557Z,69.10
2022-12-16T08:01:12.501Z,63.53
2022-12-16T08:04:04.493Z,67.20
2022-12-16T08:06:54.128Z,71.97
2022-12-16T08:09:43.685Z,64.20
2022-12-16T08:12:33.467Z,68.83
2022-12-16T08:15:24.750Z,70.40
2022-12-16T08:18:14.357Z,67.40
2022-12-16T08:21:06.228Z,72.60
2022-12-16T08:23:57.507Z,69.70
2022-12-16T08:26:46.681Z,72.67
2022-12-16T08:29:44.372Z,74.33
2022-12-16T08:32:34.027Z,73.00
2022-12-16T08:35:24.436Z,77.13
2022-12-16T08:38:21.916Z,65.40
2022-12-16T08:41:11.867Z,71.23
2022-12-16T08:44:01.005Z,75.73
2022-12-16T08:46:50.689Z,74.60
2022-12-16T08:49:40.487Z,67.37
2022-12-16T08:52:29.947Z,72.97
2022-12-16T08:55:27.647Z,73.47
2022-12-16T08:58:17.457Z,71.03
2022-12-16T09:01:07.685Z,74.10
2022-12-16T09:03:57.731Z,73.07
2022-12-16T09:06:46.969Z,63.17
2022-12-16T09:09:36.438Z,71.53
2022-12-16T09:12:28.278Z,74.13
2022-12-16T09:15:17.848Z,73.37
2022-12-16T09:18:10.594Z,68.27
2022-12-16T09:21:00.166Z,71.65
2022-12-16T09:23:49.431Z,66.30
2022-12-16T09:26:39.237Z,82.10
2022-12-16T09:29:31.927Z,79.23
2022-12-16T09:32:21.666Z,86.20
2022-12-16T09:35:13.634Z,81.00
2022-12-16T09:38:04.183Z,75.20
2022-12-16T09:41:07.160Z,86.43
2022-12-16T09:44:19.435Z,72.90
2022-12-16T09:47:19.704Z,76.27
2022-12-16T09:50:10.407Z,76.83
2022-12-16T09:53:05.077Z,73.23
2022-12-16T09:55:58.203Z,62.60
2022-12-16T09:58:54.966Z,77.53
2022-12-16T10:01:49.820Z,69.37
2022-12-16T10:07:35.339Z,68.10
2022-12-16T10:10:39.722Z,73.60
2022-12-16T10:13:37.920Z,72.60
2022-12-16T10:16:37.958Z,73.73
2022-12-16T10:19:45.367Z,76.57
2022-12-16T10:22:50.860Z,67.17
2022-12-16T10:25:55.161Z,81.10
2022-12-16T10:29:00.431Z,76.60
2022-12-16T10:31:52.554Z,78.50
2022-12-16T10:34:48.722Z,79.60
2022-12-16T10:37:49.509Z,78.70
2022-12-16T10:40:44.001Z,82.40
2022-12-16T10:43:41.807Z,75.63
2022-12-16T10:46:42.603Z,71.20
2022-12-16T10:49:33.050Z,83.60
2022-12-16T10:52:29.004Z,79.27
2022-12-16T10:55:33.020Z,81.37
2022-12-16T10:58:35.669Z,81.80
2022-12-16T11:01:39.777Z,75.07
2022-12-16T11:04:51.251Z,93.28
2022-12-16T11:07:49.370Z,91.33
2022-12-16T11:10:51.709Z,86.57
2022-12-16T11:13:44.933Z,86.28
2022-12-16T11:16:37.777Z,87.67
2022-12-16T11:19:38.791Z,85.28
2022-12-16T11:22:32.108Z,92.53
2022-12-16T11:25:33.371Z,74.03
2022-12-16T11:28:27.437Z,94.27
2022-12-16T11:31:21.651Z,94.83
2022-12-16T11:34:13.461Z,91.15
2022-12-16T11:37:04.799Z,94.60
2022-12-16T11:39:55.320Z,94.90
2022-12-16T11:42:49.579Z,108.60
2022-12-16T11:45:39.138Z,95.65
2022-12-16T11:48:42.016Z,106.53
2022-12-16T11:51:32.488Z,100.13
2022-12-16T11:54:31.151Z,106.93
2022-12-16T11:57:31.858Z,109.10
2022-12-16T12:00:32.230Z,101.43
2022-12-16T12:03:26.380Z,112.67
2022-12-16T12:06:28.326Z,105.00
2022-12-16T12:09:26.439Z,108.77
2022-12-16T12:12:35.569Z,117.47
2022-12-16T12:15:39.554Z,110.03
2022-12-16T12:18:53.497Z,104.23
2022-12-16T12:21:48.664Z,108.63
2022-12-16T12:24:53.551Z,104.20
2022-12-16T12:27:50.368Z,101.10
2022-12-16T12:30:45.438Z,105.97
2022-12-16T12:33:47.663Z,99.32
2022-12-16T12:36:46.989Z,101.87
2022-12-16T12:39:45.457Z,97.17
2022-12-16T12:42:49.394Z,94.07
2022-12-16T12:46:01.344Z,82.82
2022-12-16T12:49:02.715Z,78.17
2022-12-16T12:52:04.873Z,84.07
2022-12-16T12:55:07.864Z,78.17
2022-12-16T12:58:02.094Z,87.25
2022-12-16T13:01:01.912Z,81.78
2022-12-16T13:03:59.174Z,81.97
2022-12-16T13:06:50.593Z,94.53
2022-12-16T13:09:45.283Z,91.73
2022-12-16T13:12:44.075Z,92.20
2022-12-16T13:15:50.177Z,90.93
2022-12-16T13:18:46.497Z,97.13
2022-12-16T13:22:01.425Z,90.40
2022-12-16T13:25:05.142Z,101.93
2022-12-16T13:28:11.830Z,87.72
2022-12-16T13:31:24.619Z,92.23
2022-12-16T13:34:23.065Z,86.57
2022-12-16T13:37:19.524Z,86.53
2022-12-16T13:40:21.572Z,87.67
2022-12-16T13:43:24.094Z,84.73
2022-12-16T13:46:32.843Z,95.63
2022-12-16T13:50:00.187Z,86.00
2022-12-16T13:53:02.497Z,89.83
2022-12-16T13:56:19.832Z,99.07
2022-12-16T13:59:30.155Z,95.00
2022-12-16T14:03:10.145Z,89.83
2022-12-16T14:06:27.629Z,84.73
2022-12-16T14:13:34.340Z,90.07
2022-12-16T14:16:42.358Z,87.93
2022-12-16T14:19:45.646Z,85.27
2022-12-16T14:23:17.949Z,90.57
2022-12-16T14:26:17.803Z,79.40
2022-12-16T14:29:09.183Z,79.63
2022-12-16T14:32:01.529Z,95.90
2022-12-16T14:34:52.653Z,88.23
2022-12-16T14:37:52.579Z,86.37
2022-12-16T14:40:50.297Z,85.47
2022-12-16T14:43:41.966Z,90.73
2022-12-16T14:46:46.143Z,89.30
2022-12-16T14:49:40.043Z,92.25
2022-12-16T14:52:36.864Z,89.70
2022-12-16T14:55:34.391Z,90.13
2022-12-16T14:58:28.522Z,84.97
2022-12-16T15:01:29.548Z,87.18
2022-12-16T15:04:29.184Z,76.23
2022-12-16T15:07:27.767Z,86.27
2022-12-16T15:10:22.939Z,85.90
2022-12-16T15:13:25.513Z,86.20
2022-12-16T15:16:15.680Z,82.67
2022-12-16T15:19:20.203Z,74.97
2022-12-16T15:22:19.172Z,88.47
2022-12-16T15:25:11.951Z,81.80
2022-12-16T15:28:11.003Z,82.47
2022-12-16T15:31:03.503Z,84.93
2022-12-16T15:33:55.096Z,89.27
2022-12-16T15:36:47.708Z,95.30
2022-12-16T15:39:40.757Z,86.80
2022-12-16T15:42:41.527Z,87.83
2022-12-16T15:45:39.857Z,84.10
2022-12-16T15:48:38.497Z,87.53
2022-12-16T15:51:40.368Z,86.50
2022-12-16T15:54:35.954Z,79.00
2022-12-16T15:57:46.245Z,66.63
2022-12-16T16:00:41.433Z,56.10
2022-12-16T16:03:49.265Z,59.97
2022-12-16T16:06:46.767Z,62.53
2022-12-16T16:09:48.546Z,52.13
2022-12-16T16:12:45.467Z,60.60
2022-12-16T16:15:44.815Z,54.93
2022-12-16T16:18:45.511Z,49.27
2022-12-16T16:21:48.043Z,47.97
2022-12-16T16:24:53.287Z,55.23
2022-12-16T16:27:51.581Z,55.43
2022-12-16T16:30:48.451Z,51.67
2022-12-16T16:33:55.630Z,61.00
2022-12-16T16:36:47.754Z,54.80
2022-12-16T16:39:44.130Z,51.63
2022-12-16T16:42:42.164Z,49.47
2022-12-16T16:45:40.013Z,48.07
2022-12-16T16:48:39.051Z,51.13
2022-12-16T16:51:43.237Z,51.97
2022-12-16T16:54:43.921Z,44.87
2022-12-16T16:57:44.737Z,52.63
2022-12-16T17:00:44.610Z,53.87
2022-12-16T17:03:44.330Z,54.03
2022-12-16T17:06:47.171Z,49.90
2022-12-16T17:09:47.276Z,51.90
2022-12-16T17:12:49.095Z,55.57
2022-12-16T17:15:55.519Z,53.20
2022-12-16T17:18:53.347Z,56.23
2022-12-16T17:21:49.563Z,52.67
2022-12-16T17:24:47.565Z,57.97
2022-12-16T17:27:51.502Z,54.47
2022-12-16T17:31:04.790Z,48.80
2022-12-16T17:34:07.748Z,48.83
2022-12-16T17:37:08.749Z,48.83
2022-12-16T17:40:09.034Z,47.53
2022-12-16T17:43:07.212Z,53.27
2022-12-16T17:46:25.789Z,44.33
2022-12-16T17:49:26.954Z,46.33
2022-12-16T17:52:30.192Z,47.77
2022-12-16T17:55:25.708Z,45.13
2022-12-16T18:01:08.616Z,44.70
2022-12-16T18:03:59.280Z,43.93
2022-12-16T18:06:51.701Z,45.97
2022-12-16T18:09:46.547Z,48.95
2022-12-16T18:12:37.907Z,43.60
2022-12-16T18:15:28.275Z,45.93
2022-12-16T18:18:21.066Z,46.70
2022-12-16T18:21:24.174Z,43.80
2022-12-16T18:24:21.739Z,33.03
2022-12-16T18:27:19.709Z,47.30
2022-12-16T18:30:12.931Z,47.40
2022-12-16T18:33:05.132Z,48.33
2022-12-16T18:35:56.196Z,46.90
2022-12-16T18:38:47.151Z,48.67
2022-12-16T18:41:38.987Z,40.77
2022-12-16T18:44:32.591Z,45.57
2022-12-16T18:47:25.177Z,37.92
2022-12-16T18:50:16.358Z,38.03
2022-12-16T18:53:06.439Z,39.67
2022-12-16T18:56:00.077Z,40.57
2022-12-16T18:58:52.480Z,40.43
2022-12-16T19:01:46.167Z,38.13
2022-12-16T19:04:37.577Z,39.63
2022-12-16T19:07:31.713Z,38.43
2022-12-16T19:10:25.476Z,39.27
2022-12-16T19:13:16.760Z,44.57
2022-12-16T19:19:03.849Z,32.27
2022-12-16T19:21:56.644Z,37.20
2022-12-16T19:24:49.220Z,32.20
2022-12-16T19:27:39.412Z,32.10
2022-12-16T19:30:42.646Z,31.40
2022-12-16T19:33:32.138Z,34.03
2022-12-16T19:36:28.677Z,29.20
2022-12-16T19:39:18.114Z,33.87
2022-12-16T19:42:09.107Z,38.33
2022-12-16T19:44:59.078Z,39.27
2022-12-16T19:47:49.493Z,36.97
2022-12-16T19:50:39.153Z,33.30
2022-12-16T19:53:32.585Z,34.93
2022-12-16T19:56:29.713Z,31.42
2022-12-16T19:59:19.633Z,34.30
2022-12-16T20:02:09.536Z,33.77
2022-12-16T20:04:59.713Z,36.07
2022-12-16T20:07:50.376Z,37.33
2022-12-16T20:10:44.482Z,36.30
2022-12-16T20:13:34.962Z,37.23
2022-12-16T20:16:28.483Z,43.33
2022-12-16T20:19:18.263Z,39.73
2022-12-16T20:22:11.869Z,41.50
2022-12-16T20:25:04.113Z,42.83
2022-12-16T20:27:56.606Z,43.10
2022-12-16T20:30:45.855Z,40.33
2022-12-16T20:33:35.973Z,45.43
2022-12-16T20:36:26.675Z,43.43
2022-12-16T20:39:18.165Z,45.83
2022-12-16T20:42:08.183Z,40.50
2022-12-16T20:45:02.467Z,43.13
2022-12-16T20:47:52.105Z,41.73
2022-12-16T20:50:46.702Z,42.13
2022-12-16T20:53:45.197Z,42.77
2022-12-16T20:56:42.111Z,39.20
2022-12-16T20:59:35.144Z,39.47
2022-12-16T21:02:33.849Z,37.03
2022-12-16T21:05:33.209Z,36.13
2022-12-16T21:08:32.503Z,41.27
2022-12-16T21:11:34.380Z,41.37
2022-12-16T21:14:36.311Z,29.70
2022-12-16T21:17:39.750Z,40.67
2022-12-16T21:20:39.487Z,43.10
2022-12-16T21:23:36.779Z,45.50
2022-12-16T21:26:29.641Z,46.07
2022-12-16T21:29:25.930Z,45.13
2022-12-16T21:32:26.906Z,47.70
2022-12-16T21:35:30.243Z,47.13
2022-12-16T21:38:31.702Z,46.00
2022-12-16T21:41:31.134Z,50.07
2022-12-16T21:44:29.427Z,48.17
2022-12-16T21:47:28.740Z,52.37
2022-12-16T21:50:30.729Z,55.40
2022-12-16T21:53:24.028Z,52.73
2022-12-16T21:56:18.990Z,53.50
2022-12-16T21:59:08.210Z,60.97
2022-12-16T22:01:58.973Z,54.80
2022-12-16T22:04:56.700Z,56.87
2022-12-16T22:07:59.191Z,55.97
2022-12-16T22:10:57.178Z,56.10
2022-12-16T22:13:50.472Z,49.33
2022-12-16T22:16:45.142Z,58.93
2022-12-16T22:19:39.600Z,46.13
2022-12-16T22:22:34.067Z,45.67
2022-12-16T22:25:33.992Z,50.07
2022-12-16T22:28:28.281Z,41.43
2022-12-16T22:31:18.185Z,49.37
2022-12-16T22:34:13.352Z,48.87
2022-12-16T22:37:11.817Z,48.90
2022-12-16T22:40:08.696Z,47.30
